Time;durP1;ratioP1;P1;durP2;ratioP2;P2;SDS_P1;SDS_P2;PMS_P1;PMS_P2;Temp;Humidity;BMP_temperature;BMP_pressure;BME280_temperature;BME280_humidity;BME280_pressure;Samples;Min_cycle;Max_cycle;Signal;HPM_P1;HPM_P2
2023/06/19 00:02:14;;;;;;;4.82;4.28;;;;;;;;;;7303236;19;142035;-76
2023/06/19 00:04:41;;;;;;;4.45;4.00;;;;;;;;;;7303530;19;140432;-76
2023/06/19 00:07:09;;;;;;;4.90;4.35;;;;;;;;;;7303360;19;140665;-76
2023/06/19 00:09:36;;;;;;;5.50;4.40;;;;;;;;;;7302923;19;140724;-76
2023/06/19 00:12:04;;;;;;;4.40;4.00;;;;;;;;;;7303281;19;141892;-76
2023/06/19 00:14:32;;;;;;;5.25;4.05;;;;;;;;;;7302519;19;140592;-75
2023/06/19 00:17:00;;;;;;;4.22;3.83;;;;;;;;;;7303041;19;140975;-75
2023/06/19 00:19:27;;;;;;;6.13;4.53;;;;;;;;;;7302683;19;141882;-77
2023/06/19 00:21:57;;;;;;;4.88;4.32;;;;;;;;;;7303028;19;142271;-77
2023/06/19 00:24:24;;;;;;;5.55;4.32;;;;;;;;;;7303668;19;140835;-77
2023/06/19 00:26:51;;;;;;;5.72;4.28;;;;;;;;;;7302615;19;140702;-77
2023/06/19 00:29:18;;;;;;;5.57;4.30;;;;;;;;;;7301824;19;141150;-77
2023/06/19 00:31:46;;;;;;;4.50;4.00;;;;;;;;;;7300957;19;141820;-77
2023/06/19 00:34:13;;;;;;;4.60;4.20;;;;;;;;;;7303225;19;140507;-76
2023/06/19 00:36:41;;;;;;;4.43;3.80;;;;;;;;;;7302282;19;140543;-77
2023/06/19 00:39:08;;;;;;;5.30;4.18;;;;;;;;;;7300081;19;141279;-77
2023/06/19 00:41:35;;;;;;;4.78;3.92;;;;;;;;;;7302525;19;143358;-76
2023/06/19 00:44:03;;;;;;;5.25;3.80;;;;;;;;;;7299373;19;140743;-76
2023/06/19 00:46:37;;;;;;;4.80;4.03;;;;;;;;;;7302629;19;140777;-76
2023/06/19 00:49:04;;;;;;;4.20;3.80;;;;;;;;;;7302092;19;141698;-77
2023/06/19 00:51:32;;;;;;;4.53;4.13;;;;;;;;;;7302335;19;142008;-77
2023/06/19 00:53:59;;;;;;;4.38;3.95;;;;;;;;;;7303332;19;140480;-76
2023/06/19 00:56:27;;;;;;;4.35;3.55;;;;;;;;;;7301913;19;140763;-76
2023/06/19 00:58:55;;;;;;;4.15;3.75;;;;;;;;;;7300204;19;142392;-77
2023/06/19 01:01:23;;;;;;;4.18;3.78;;;;;;;;;;7301212;19;142119;-77
2023/06/19 01:03:51;;;;;;;5.07;4.20;;;;;;;;;;7301668;19;140623;-77
2023/06/19 01:06:23;;;;;;;4.43;4.03;;;;;;;;;;7301415;19;140398;-77
2023/06/19 01:08:53;;;;;;;4.15;3.70;;;;;;;;;;7300114;19;142106;-77
2023/06/19 01:11:27;;;;;;;3.97;3.58;;;;;;;;;;7300245;19;143022;-77
2023/06/19 01:13:55;;;;;;;4.28;3.88;;;;;;;;;;7301550;19;140361;-76
2023/06/19 01:16:23;;;;;;;4.47;4.00;;;;;;;;;;7302046;19;140608;-76
2023/06/19 01:18:51;;;;;;;4.13;3.72;;;;;;;;;;7301143;19;140820;-76
2023/06/19 01:21:19;;;;;;;5.03;3.50;;;;;;;;;;7300754;19;142063;-76
2023/06/19 01:23:46;;;;;;;4.05;3.65;;;;;;;;;;7301447;19;140733;-77
2023/06/19 01:26:16;;;;;;;5.40;3.90;;;;;;;;;;7300675;19;140779;-76
2023/06/19 01:28:44;;;;;;;4.22;3.80;;;;;;;;;;7300806;19;141038;-77
2023/06/19 01:31:23;;;;;;;4.75;4.25;;;;;;;;;;7301000;19;142009;-77
2023/06/19 01:33:52;;;;;;;4.10;3.30;;;;;;;;;;7301483;19;140632;-77
2023/06/19 01:36:21;;;;;;;4.35;3.63;;;;;;;;;;7300864;19;140831;-76
2023/06/19 01:38:55;;;;;;;4.53;4.10;;;;;;;;;;7299510;19;140461;-76
2023/06/19 01:41:23;;;;;;;3.60;3.20;;;;;;;;;;7299248;19;142549;-76
2023/06/19 01:43:51;;;;;;;4.40;3.72;;;;;;;;;;7303941;19;140558;-76
2023/06/19 01:46:18;;;;;;;3.70;3.40;;;;;;;;;;7307515;19;140667;-76
2023/06/19 01:48:46;;;;;;;4.35;3.80;;;;;;;;;;7307636;19;141986;-77
2023/06/19 01:51:13;;;;;;;4.00;3.60;;;;;;;;;;7307874;19;142554;-77
2023/06/19 01:53:40;;;;;;;4.07;3.60;;;;;;;;;;7307236;19;140524;-77
2023/06/19 01:56:08;;;;;;;4.15;3.58;;;;;;;;;;7307516;19;140412;-77
2023/06/19 01:58:35;;;;;;;4.18;3.78;;;;;;;;;;7307144;19;141234;-76
2023/06/19 02:01:02;;;;;;;4.00;3.70;;;;;;;;;;7307125;19;141632;-76
2023/06/19 02:03:30;;;;;;;3.80;3.40;;;;;;;;;;7308125;19;140832;-76
2023/06/19 02:05:58;;;;;;;4.45;3.88;;;;;;;;;;7307415;19;140623;-76
2023/06/19 02:08:25;;;;;;;4.10;3.70;;;;;;;;;;7306820;19;141839;-76
2023/06/19 02:10:52;;;;;;;3.80;3.50;;;;;;;;;;7307242;19;142725;-76
2023/06/19 02:13:20;;;;;;;3.90;3.50;;;;;;;;;;7306914;19;140737;-76
2023/06/19 02:15:47;;;;;;;5.72;3.83;;;;;;;;;;7306122;19;141057;-76
2023/06/19 02:18:14;;;;;;;3.72;3.33;;;;;;;;;;7306656;19;142093;-75
2023/06/19 02:20:41;;;;;;;3.95;3.55;;;;;;;;;;7305917;19;141916;-76
2023/06/19 02:23:08;;;;;;;3.90;3.30;;;;;;;;;;7306140;19;140603;-76
2023/06/19 02:25:36;;;;;;;3.67;3.38;;;;;;;;;;7306842;19;140786;-76
2023/06/19 02:28:03;;;;;;;4.30;3.50;;;;;;;;;;7306329;19;141280;-76
2023/06/19 02:30:30;;;;;;;3.78;3.47;;;;;;;;;;7306110;19;141855;-76
2023/06/19 02:32:58;;;;;;;3.92;3.53;;;;;;;;;;7305830;19;140694;-76
2023/06/19 02:35:25;;;;;;;3.90;3.33;;;;;;;;;;7305425;19;140626;-76
2023/06/19 02:37:52;;;;;;;3.67;3.38;;;;;;;;;;7305147;19;142409;-76
2023/06/19 02:40:19;;;;;;;4.57;3.45;;;;;;;;;;7304235;19;142375;-76
2023/06/19 02:42:47;;;;;;;4.90;3.75;;;;;;;;;;7304924;19;140666;-76
2023/06/19 02:45:16;;;;;;;3.70;3.40;;;;;;;;;;7305510;19;140763;-76
2023/06/19 02:47:43;;;;;;;3.75;3.42;;;;;;;;;;7305499;19;141549;-76
2023/06/19 02:50:11;;;;;;;3.78;3.47;;;;;;;;;;7304933;19;141938;-76
2023/06/19 02:52:38;;;;;;;3.90;3.50;;;;;;;;;;7306018;19;140672;-76
2023/06/19 02:55:07;;;;;;;3.38;3.08;;;;;;;;;;7305162;19;140679;-76
2023/06/19 02:57:34;;;;;;;3.60;3.30;;;;;;;;;;7305356;19;141434;-76
2023/06/19 03:00:03;;;;;;;4.10;3.70;;;;;;;;;;7305579;19;142433;-76
2023/06/19 03:02:30;;;;;;;4.78;3.65;;;;;;;;;;7304598;19;140468;-76
2023/06/19 03:04:57;;;;;;;4.90;3.72;;;;;;;;;;7305619;19;140751;-77
2023/06/19 03:07:28;;;;;;;3.72;3.33;;;;;;;;;;7305199;19;141951;-76
2023/06/19 03:09:55;;;;;;;3.90;3.58;;;;;;;;;;7304397;19;142037;-76
2023/06/19 03:12:22;;;;;;;4.00;3.30;;;;;;;;;;7304096;19;140431;-76
2023/06/19 03:14:50;;;;;;;4.00;3.60;;;;;;;;;;7304277;19;140492;-76
2023/06/19 03:17:17;;;;;;;3.58;3.25;;;;;;;;;;7304339;19;140554;-77
2023/06/19 03:19:44;;;;;;;3.72;3.42;;;;;;;;;;7304397;19;141911;-77
2023/06/19 03:22:11;;;;;;;4.03;3.63;;;;;;;;;;7304755;19;140532;-76
2023/06/19 03:24:39;;;;;;;4.03;3.63;;;;;;;;;;7303964;19;140796;-75
2023/06/19 03:27:06;;;;;;;3.42;3.10;;;;;;;;;;7304128;19;141338;-76
2023/06/19 03:29:33;;;;;;;3.75;3.20;;;;;;;;;;7303652;19;141863;-76
2023/06/19 03:32:01;;;;;;;3.30;3.00;;;;;;;;;;7304761;19;140614;-76
2023/06/19 03:34:28;;;;;;;4.10;3.70;;;;;;;;;;7304665;19;140827;-76
2023/06/19 03:36:55;;;;;;;4.25;3.67;;;;;;;;;;7304270;19;141359;-77
2023/06/19 03:39:22;;;;;;;4.03;3.60;;;;;;;;;;7302862;19;142005;-76
2023/06/19 03:41:49;;;;;;;3.60;3.17;;;;;;;;;;7303867;19;140616;-76
2023/06/19 03:44:17;;;;;;;3.58;3.20;;;;;;;;;;7302761;19;140947;-77
2023/06/19 03:46:44;;;;;;;3.70;3.30;;;;;;;;;;7304169;19;142025;-77
2023/06/19 03:49:12;;;;;;;3.90;3.50;;;;;;;;;;7303580;19;140804;-76
2023/06/19 03:51:39;;;;;;;3.67;3.35;;;;;;;;;;7303531;19;140659;-76
2023/06/19 03:54:06;;;;;;;3.90;3.53;;;;;;;;;;7303485;19;140485;-76
2023/06/19 03:56:33;;;;;;;4.22;3.83;;;;;;;;;;7302765;19;141972;-77
2023/06/19 03:59:00;;;;;;;4.07;3.67;;;;;;;;;;7302812;19;142445;-76
2023/06/19 04:01:28;;;;;;;4.80;3.50;;;;;;;;;;7302939;19;140639;-77
2023/06/19 04:03:55;;;;;;;3.97;3.55;;;;;;;;;;7303905;19;140576;-76
2023/06/19 04:06:22;;;;;;;4.25;3.85;;;;;;;;;;7300180;19;141275;-77
2023/06/19 04:08:50;;;;;;;4.00;3.60;;;;;;;;;;7301617;19;142092;-76
2023/06/19 04:11:17;;;;;;;4.30;3.90;;;;;;;;;;7303597;19;140442;-76
2023/06/19 04:13:44;;;;;;;3.95;3.55;;;;;;;;;;7302959;19;140806;-77
2023/06/19 04:16:11;;;;;;;4.25;3.85;;;;;;;;;;7302147;19;141775;-76
2023/06/19 04:18:39;;;;;;;3.80;3.50;;;;;;;;;;7302128;19;142644;-77
2023/06/19 04:21:07;;;;;;;3.80;3.50;;;;;;;;;;7301823;19;140474;-76
2023/06/19 04:23:34;;;;;;;4.50;4.10;;;;;;;;;;7301677;19;140683;-76
2023/06/19 04:26:02;;;;;;;4.15;3.75;;;;;;;;;;7302265;19;140564;-76
2023/06/19 04:28:29;;;;;;;4.65;3.65;;;;;;;;;;7302836;19;140766;-77
2023/06/19 04:30:59;;;;;;;4.43;4.03;;;;;;;;;;7301843;19;141063;-76
2023/06/19 04:33:28;;;;;;;4.95;4.07;;;;;;;;;;7302692;19;140377;-76
2023/06/19 04:35:56;;;;;;;4.53;4.03;;;;;;;;;;7300183;19;141370;-76
2023/06/19 04:38:24;;;;;;;5.80;4.25;;;;;;;;;;7301627;19;142849;-76
2023/06/19 04:40:54;;;;;;;6.22;5.10;;;;;;;;;;7302659;19;140561;-76
2023/06/19 04:43:24;;;;;;;5.03;4.00;;;;;;;;;;7302280;19;140872;-76
2023/06/19 04:45:51;;;;;;;4.25;3.80;;;;;;;;;;7300762;19;141839;-76
2023/06/19 04:48:19;;;;;;;4.60;3.95;;;;;;;;;;7301771;19;140828;-77
2023/06/19 04:50:46;;;;;;;4.63;4.15;;;;;;;;;;7302019;19;140294;-76
2023/06/19 04:53:13;;;;;;;4.90;4.20;;;;;;;;;;7301939;19;141695;-76
2023/06/19 04:55:40;;;;;;;4.93;4.25;;;;;;;;;;7301215;19;141368;-79
2023/06/19 04:58:07;;;;;;;5.22;3.97;;;;;;;;;;7302193;19;141912;-77
2023/06/19 05:00:35;;;;;;;5.25;3.78;;;;;;;;;;7300319;19;140625;-80
2023/06/19 05:03:02;;;;;;;4.43;4.03;;;;;;;;;;7298509;19;140726;-78
2023/06/19 05:05:29;;;;;;;5.72;4.28;;;;;;;;;;7297311;19;141256;-80
2023/06/19 05:07:57;;;;;;;4.03;3.58;;;;;;;;;;7299314;19;140941;-79
2023/06/19 05:10:24;;;;;;;4.20;3.80;;;;;;;;;;7299477;19;140597;-78
2023/06/19 05:12:51;;;;;;;3.60;3.30;;;;;;;;;;7300227;19;141123;-77
2023/06/19 05:15:19;;;;;;;4.18;3.67;;;;;;;;;;7299593;19;141544;-77
2023/06/19 05:17:46;;;;;;;4.13;3.72;;;;;;;;;;7304045;19;142146;-76
2023/06/19 05:20:13;;;;;;;3.95;3.55;;;;;;;;;;7309021;19;140610;-76
2023/06/19 05:22:41;;;;;;;4.15;3.60;;;;;;;;;;7308692;19;140571;-75
2023/06/19 05:25:09;;;;;;;4.07;3.60;;;;;;;;;;7309139;19;140763;-75
2023/06/19 05:27:36;;;;;;;4.32;3.92;;;;;;;;;;7307564;19;142085;-75
2023/06/19 05:30:05;;;;;;;4.53;3.60;;;;;;;;;;7306257;19;140474;-75
2023/06/19 05:32:32;;;;;;;3.80;3.50;;;;;;;;;;7308918;19;140803;-75
2023/06/19 05:34:59;;;;;;;3.58;3.28;;;;;;;;;;7307389;19;141276;-75
2023/06/19 05:37:27;;;;;;;3.90;3.50;;;;;;;;;;7306521;19;141915;-75
2023/06/19 05:39:54;;;;;;;3.50;3.20;;;;;;;;;;7306627;19;140533;-76
2023/06/19 05:42:21;;;;;;;3.85;3.42;;;;;;;;;;7306972;19;140398;-76
2023/06/19 05:44:49;;;;;;;4.03;3.67;;;;;;;;;;7306740;19;141285;-74
2023/06/19 05:47:17;;;;;;;3.75;3.40;;;;;;;;;;7306476;19;141480;-76
2023/06/19 05:49:44;;;;;;;4.70;3.70;;;;;;;;;;7307241;19;140377;-76
2023/06/19 05:52:12;;;;;;;4.40;3.42;;;;;;;;;;7307151;19;140571;-76
2023/06/19 05:54:39;;;;;;;4.53;3.63;;;;;;;;;;7306828;19;141450;-76
2023/06/19 05:57:09;;;;;;;3.73;3.43;;;;;;;;;;7306834;19;142320;-76
2023/06/19 05:59:36;;;;;;;3.90;3.55;;;;;;;;;;7306737;19;140383;-79
2023/06/19 06:02:05;;;;;;;3.45;3.13;;;;;;;;;;7306296;19;140700;-78
2023/06/19 06:04:32;;;;;;;3.60;3.30;;;;;;;;;;7307159;19;141423;-77
2023/06/19 06:07:00;;;;;;;3.67;3.33;;;;;;;;;;7306351;19;142422;-77
2023/06/19 06:09:27;;;;;;;3.95;3.40;;;;;;;;;;7307979;19;140713;-80
2023/06/19 06:11:55;;;;;;;3.28;2.97;;;;;;;;;;7305507;19;140624;-79
2023/06/19 06:14:23;;;;;;;3.83;3.42;;;;;;;;;;7305425;19;142020;-80
2023/06/19 06:16:50;;;;;;;3.50;3.20;;;;;;;;;;7304336;19;142587;-79
2023/06/19 06:19:23;;;;;;;3.65;3.22;;;;;;;;;;7306648;19;140572;-78
2023/06/19 06:21:51;;;;;;;3.33;3.03;;;;;;;;;;7305970;19;140695;-80
2023/06/19 06:24:19;;;;;;;3.58;3.28;;;;;;;;;;7306521;19;140416;-80
2023/06/19 06:26:46;;;;;;;3.95;3.50;;;;;;;;;;7306363;19;141408;-79
2023/06/19 06:29:14;;;;;;;3.35;3.05;;;;;;;;;;7303856;19;140718;-80
2023/06/19 06:31:41;;;;;;;3.50;3.20;;;;;;;;;;7306454;19;140683;-80
2023/06/19 06:34:08;;;;;;;4.10;3.70;;;;;;;;;;7304874;19;141348;-79
2023/06/19 06:36:36;;;;;;;3.45;3.05;;;;;;;;;;7307122;19;142079;-79
2023/06/19 06:39:12;;;;;;;3.38;3.08;;;;;;;;;;7306623;19;140902;-80
2023/06/19 06:41:39;;;;;;;3.42;3.13;;;;;;;;;;7304717;19;140755;-81
2023/06/19 06:44:06;;;;;;;3.30;3.00;;;;;;;;;;7304797;19;142614;-78
2023/06/19 06:46:33;;;;;;;3.10;2.80;;;;;;;;;;7305516;19;142576;-78
2023/06/19 06:49:01;;;;;;;3.08;2.78;;;;;;;;;;7307021;19;140833;-79
2023/06/19 06:51:28;;;;;;;3.42;3.13;;;;;;;;;;7305420;19;140662;-78
2023/06/19 06:53:55;;;;;;;3.72;3.38;;;;;;;;;;7305752;19;141535;-80
2023/06/19 06:56:22;;;;;;;3.08;2.80;;;;;;;;;;7305530;19;142585;-78
2023/06/19 06:58:50;;;;;;;3.40;3.10;;;;;;;;;;7306064;19;140579;-78
2023/06/19 07:01:17;;;;;;;3.20;2.90;;;;;;;;;;7305199;19;141112;-81
2023/06/19 07:03:44;;;;;;;3.40;3.10;;;;;;;;;;7308107;19;141350;-82
2023/06/19 07:06:11;;;;;;;3.50;3.20;;;;;;;;;;7306270;19;141805;-80
2023/06/19 07:08:40;;;;;;;2.88;2.67;;;;;;;;;;7306232;19;140754;-83
2023/06/19 07:11:08;;;;;;;3.30;3.00;;;;;;;;;;7305815;19;140524;-88
2023/06/19 07:13:35;;;;;;;3.25;2.95;;;;;;;;;;7305650;19;141624;-81
2023/06/19 07:16:04;;;;;;;3.35;3.05;;;;;;;;;;7304845;19;141968;-84
2023/06/19 07:18:33;;;;;;;3.78;3.15;;;;;;;;;;7306227;19;140634;-80
2023/06/19 07:21:02;;;;;;;3.30;3.00;;;;;;;;;;7306166;19;140874;-75
2023/06/19 07:23:30;;;;;;;2.97;2.72;;;;;;;;;;7303971;19;141546;-79
2023/06/19 07:25:57;;;;;;;3.22;2.92;;;;;;;;;;7304748;19;143044;-79
2023/06/19 07:28:24;;;;;;;3.08;2.75;;;;;;;;;;7305069;19;140735;-83
2023/06/19 07:30:52;;;;;;;3.35;3.05;;;;;;;;;;7304318;19;141017;-77
2023/06/19 07:33:19;;;;;;;2.90;2.67;;;;;;;;;;7304261;19;141527;-77
2023/06/19 07:35:46;;;;;;;3.13;2.83;;;;;;;;;;7304161;19;142114;-79
2023/06/19 07:38:14;;;;;;;3.20;2.90;;;;;;;;;;7304425;19;140946;-74
2023/06/19 07:40:41;;;;;;;3.88;3.28;;;;;;;;;;7302683;19;140334;-76
2023/06/19 07:43:09;;;;;;;3.13;2.83;;;;;;;;;;7301391;19;141419;-76
2023/06/19 07:45:37;;;;;;;3.65;3.28;;;;;;;;;;7303661;19;141275;-77
2023/06/19 07:48:05;;;;;;;3.38;3.08;;;;;;;;;;7303225;19;140886;-76
2023/06/19 07:50:34;;;;;;;3.20;2.90;;;;;;;;;;7303663;19;140732;-76
2023/06/19 07:53:02;;;;;;;3.40;3.05;;;;;;;;;;7302771;19;141597;-76
2023/06/19 07:55:29;;;;;;;3.80;2.90;;;;;;;;;;7303823;19;142651;-75
2023/06/19 07:57:56;;;;;;;3.30;3.00;;;;;;;;;;7304791;19;140513;-77
2023/06/19 08:00:24;;;;;;;3.50;3.20;;;;;;;;;;7304585;19;140531;-80
2023/06/19 08:02:52;;;;;;;3.33;3.03;;;;;;;;;;7303160;19;141445;-77
2023/06/19 08:05:19;;;;;;;4.15;3.30;;;;;;;;;;7303320;19;141457;-76
2023/06/19 08:07:47;;;;;;;5.75;4.03;;;;;;;;;;7303196;19;140455;-75
2023/06/19 08:10:14;;;;;;;5.07;3.83;;;;;;;;;;7304271;19;140539;-77
2023/06/19 08:12:42;;;;;;;5.82;4.00;;;;;;;;;;7303249;19;141262;-76
2023/06/19 08:15:16;;;;;;;4.43;3.65;;;;;;;;;;7302409;19;141792;-77
2023/06/19 08:17:44;;;;;;;4.30;3.90;;;;;;;;;;7303358;19;140732;-77
2023/06/19 08:20:11;;;;;;;5.15;3.92;;;;;;;;;;7303017;19;140556;-77
2023/06/19 08:22:38;;;;;;;4.50;3.65;;;;;;;;;;7302899;19;141658;-78
2023/06/19 08:25:08;;;;;;;5.00;3.83;;;;;;;;;;7302886;19;142821;-78
2023/06/19 08:27:36;;;;;;;5.75;3.85;;;;;;;;;;7303382;19;140655;-78
2023/06/19 08:30:03;;;;;;;4.45;3.70;;;;;;;;;;7302574;19;140487;-77
2023/06/19 08:32:30;;;;;;;4.05;3.65;;;;;;;;;;7301928;19;141118;-78
2023/06/19 08:34:58;;;;;;;5.25;3.85;;;;;;;;;;7302396;19;142965;-77
2023/06/19 08:37:25;;;;;;;4.60;4.13;;;;;;;;;;7303453;19;140348;-78
2023/06/19 08:39:52;;;;;;;3.97;3.58;;;;;;;;;;7302042;19;140933;-79
2023/06/19 08:42:19;;;;;;;4.57;3.90;;;;;;;;;;7302338;19;140567;-79
2023/06/19 08:44:46;;;;;;;5.32;3.83;;;;;;;;;;7302564;19;141579;-78
2023/06/19 08:47:14;;;;;;;4.25;3.78;;;;;;;;;;7301687;19;140337;-77
2023/06/19 08:49:41;;;;;;;4.60;3.67;;;;;;;;;;7302351;19;140390;-77
2023/06/19 08:52:08;;;;;;;4.15;3.75;;;;;;;;;;7301647;19;141309;-78
2023/06/19 08:54:43;;;;;;;4.85;4.38;;;;;;;;;;7301491;19;141908;-79
2023/06/19 08:57:14;;;;;;;4.07;3.70;;;;;;;;;;7302307;19;140905;-78
2023/06/19 08:59:49;;;;;;;5.43;4.10;;;;;;;;;;7302167;19;140423;-78
2023/06/19 09:02:17;;;;;;;4.15;3.75;;;;;;;;;;7301683;19;141726;-79
2023/06/19 09:04:50;;;;;;;4.35;3.50;;;;;;;;;;7302876;19;140725;-74
2023/06/19 09:07:18;;;;;;;4.10;3.35;;;;;;;;;;7305101;19;140644;-73
2023/06/19 09:09:47;;;;;;;4.72;3.58;;;;;;;;;;7302322;19;140606;-74
2023/06/19 09:12:15;;;;;;;4.45;3.28;;;;;;;;;;7301402;19;141657;-78
2023/06/19 09:14:44;;;;;;;4.68;3.92;;;;;;;;;;7301278;19;142101;-83
2023/06/19 09:17:16;;;;;;;3.63;3.17;;;;;;;;;;7301411;19;140965;-80
2023/06/19 09:19:48;;;;;;;3.95;3.55;;;;;;;;;;7302505;19;140763;-82
2023/06/19 09:22:20;;;;;;;3.90;3.35;;;;;;;;;;7299485;19;141689;-83
2023/06/19 09:24:48;;;;;;;4.72;3.88;;;;;;;;;;7302234;19;140816;-83
2023/06/19 09:27:20;;;;;;;4.15;3.60;;;;;;;;;;7302137;19;140455;-82
2023/06/19 09:29:49;;;;;;;4.18;3.40;;;;;;;;;;7301340;19;140451;-81
2023/06/19 09:32:24;;;;;;;4.30;3.45;;;;;;;;;;7301299;19;141566;-77
2023/06/19 09:34:53;;;;;;;4.47;3.60;;;;;;;;;;7301003;19;141888;-76
2023/06/19 09:37:26;;;;;;;4.05;3.47;;;;;;;;;;7300614;19;140896;-76
2023/06/19 09:39:59;;;;;;;4.10;3.50;;;;;;;;;;7300706;19;140517;-76
2023/06/19 09:42:30;;;;;;;5.05;3.40;;;;;;;;;;7301205;19;141386;-77
2023/06/19 09:45:01;;;;;;;3.70;3.30;;;;;;;;;;7301271;19;141836;-77
2023/06/19 09:47:39;;;;;;;4.25;3.40;;;;;;;;;;7299434;19;140459;-77
2023/06/19 09:50:07;;;;;;;4.15;3.28;;;;;;;;;;7301681;19;140618;-76
2023/06/19 09:52:34;;;;;;;3.30;3.00;;;;;;;;;;7298555;19;141302;-76
2023/06/19 09:55:06;;;;;;;3.60;3.30;;;;;;;;;;7298785;19;140906;-77
2023/06/19 09:57:34;;;;;;;3.35;3.05;;;;;;;;;;7298662;19;140910;-77
2023/06/19 10:00:09;;;;;;;3.80;3.50;;;;;;;;;;7301496;19;140576;-76
2023/06/19 10:02:38;;;;;;;3.38;3.08;;;;;;;;;;7300531;19;140288;-76
2023/06/19 10:05:11;;;;;;;3.55;3.10;;;;;;;;;;7304324;19;142792;-76
2023/06/19 10:07:45;;;;;;;3.30;3.00;;;;;;;;;;7307924;19;140643;-76
2023/06/19 10:10:24;;;;;;;3.15;2.85;;;;;;;;;;7306664;19;140506;-77
2023/06/19 10:12:58;;;;;;;3.33;3.03;;;;;;;;;;7305880;19;143027;-77
2023/06/19 10:15:31;;;;;;;4.00;3.05;;;;;;;;;;7305769;19;141801;-77
2023/06/19 10:18:05;;;;;;;3.50;3.20;;;;;;;;;;7307181;19;140454;-82
2023/06/19 10:20:37;;;;;;;3.08;2.72;;;;;;;;;;7305456;19;140637;-81
2023/06/19 10:23:24;;;;;;;4.13;3.17;;;;;;;;;;7306568;19;141368;-78
2023/06/19 10:25:56;;;;;;;3.42;3.10;;;;;;;;;;7306869;19;140796;-78
2023/06/19 10:28:29;;;;;;;3.20;2.90;;;;;;;;;;7307535;19;140979;-76
2023/06/19 10:31:08;;;;;;;3.72;3.22;;;;;;;;;;7306892;19;140778;-78
2023/06/19 10:33:40;;;;;;;3.40;2.85;;;;;;;;;;7305860;19;140595;-75
2023/06/19 10:36:18;;;;;;;3.50;3.20;;;;;;;;;;7306854;19;142085;-76
2023/06/19 10:38:49;;;;;;;2.90;2.70;;;;;;;;;;7304819;19;140678;-77
2023/06/19 10:41:18;;;;;;;3.05;2.78;;;;;;;;;;7305610;19;140606;-77
2023/06/19 10:43:58;;;;;;;3.40;2.92;;;;;;;;;;7307601;19;141885;-76
2023/06/19 10:46:30;;;;;;;;;;;;;;;;;;7306590;19;142012;-76
2023/06/19 10:49:00;;;;;;;3.05;2.83;;;;;;;;;;7306521;19;140386;-76
2023/06/19 10:51:28;;;;;;;3.03;2.78;;;;;;;;;;7307431;19;140725;-76
2023/06/19 10:53:56;;;;;;;2.92;2.63;;;;;;;;;;7305267;19;141290;-77
2023/06/19 10:56:24;;;;;;;2.83;2.63;;;;;;;;;;7306128;19;143054;-75
2023/06/19 10:58:58;;;;;;;3.13;2.83;;;;;;;;;;7306528;19;140566;-80
2023/06/19 11:01:46;;;;;;;3.30;2.80;;;;;;;;;;7305708;19;140610;-80
2023/06/19 11:04:15;;;;;;;2.90;2.70;;;;;;;;;;7306054;19;141376;-82
2023/06/19 11:06:45;;;;;;;2.97;2.70;;;;;;;;;;7303572;19;141558;-83
2023/06/19 11:09:12;;;;;;;3.33;2.77;;;;;;;;;;7306554;19;140812;-82
2023/06/19 11:11:45;;;;;;;2.97;2.72;;;;;;;;;;7305631;19;140362;-82
2023/06/19 11:14:14;;;;;;;3.17;2.88;;;;;;;;;;7304497;19;142346;-80
2023/06/19 11:16:44;;;;;;;3.00;2.70;;;;;;;;;;7304349;19;140965;-79
2023/06/19 11:19:19;;;;;;;;;;;;;;;;;;7307134;19;140611;-79
2023/06/19 11:21:50;;;;;;;3.10;2.80;;;;;;;;;;7303716;19;140730;-76
2023/06/19 11:24:20;;;;;;;3.25;2.95;;;;;;;;;;7303738;19;141040;-86
2023/06/19 11:26:49;;;;;;;3.50;3.20;;;;;;;;;;7305176;19;141851;-86
2023/06/19 11:29:20;;;;;;;3.03;2.80;;;;;;;;;;7305115;19;140473;-81
2023/06/19 11:31:49;;;;;;;3.65;2.90;;;;;;;;;;7304225;19;141717;-81
2023/06/19 11:34:17;;;;;;;3.40;3.10;;;;;;;;;;7303336;19;141269;-81
2023/06/19 11:36:50;;;;;;;3.58;2.88;;;;;;;;;;7304045;19;141917;-84
2023/06/19 11:39:18;;;;;;;4.00;3.50;;;;;;;;;;7304756;19;141749;-80
2023/06/19 11:41:46;;;;;;;3.03;2.72;;;;;;;;;;7304543;19;140549;-76
2023/06/19 11:44:14;;;;;;;3.65;3.30;;;;;;;;;;7304468;19;141359;-76
2023/06/19 11:46:42;;;;;;;3.60;3.08;;;;;;;;;;7304132;19;141826;-76
2023/06/19 11:49:20;;;;;;;3.67;3.17;;;;;;;;;;7302820;19;140555;-75
2023/06/19 11:51:47;;;;;;;3.10;2.80;;;;;;;;;;7302582;19;140865;-75
2023/06/19 11:54:15;;;;;;;3.40;3.10;;;;;;;;;;7301975;19;141466;-76
2023/06/19 11:56:42;;;;;;;2.95;2.65;;;;;;;;;;7301848;19;142613;-77
2023/06/19 11:59:10;;;;;;;3.40;3.05;;;;;;;;;;7302085;19;140771;-77
2023/06/19 12:01:38;;;;;;;3.40;3.10;;;;;;;;;;7302674;19;140849;-75
2023/06/19 12:04:06;;;;;;;3.03;2.72;;;;;;;;;;7301209;19;141826;-76
2023/06/19 12:06:35;;;;;;;3.50;3.20;;;;;;;;;;7304025;19;141255;-76
2023/06/19 12:09:04;;;;;;;3.42;3.13;;;;;;;;;;7302473;19;140680;-76
2023/06/19 12:11:31;;;;;;;3.55;3.20;;;;;;;;;;7302114;19;140796;-76
2023/06/19 12:13:59;;;;;;;3.13;2.88;;;;;;;;;;7303917;19;141386;-77
2023/06/19 12:16:28;;;;;;;4.63;2.92;;;;;;;;;;7302542;19;141849;-76
2023/06/19 12:18:55;;;;;;;3.13;2.85;;;;;;;;;;7303338;19;140844;-76
2023/06/19 12:21:22;;;;;;;3.53;3.20;;;;;;;;;;7303624;19;140693;-73
2023/06/19 12:24:04;;;;;;;5.35;4.00;;;;;;;;;;7303111;19;141453;-77
2023/06/19 12:26:38;;;;;;;4.72;3.90;;;;;;;;;;7301184;19;140756;-78
2023/06/19 12:29:07;;;;;;;5.70;4.20;;;;;;;;;;7302757;19;140823;-83
2023/06/19 12:31:36;;;;;;;5.88;4.57;;;;;;;;;;7301150;19;140525;-84
2023/06/19 12:34:05;;;;;;;6.47;4.10;;;;;;;;;;7302562;19;141303;-86
2023/06/19 12:36:36;;;;;;;6.05;4.60;;;;;;;;;;7302664;19;140778;-86
2023/06/19 12:39:06;;;;;;;5.70;4.00;;;;;;;;;;7301770;19;140416;-80
2023/06/19 12:41:34;;;;;;;4.68;4.15;;;;;;;;;;7302424;19;140703;-81
2023/06/19 12:44:02;;;;;;;4.15;3.70;;;;;;;;;;7302267;19;141546;-80
2023/06/19 12:46:29;;;;;;;4.43;3.90;;;;;;;;;;7302781;19;141614;-80
2023/06/19 12:48:56;;;;;;;6.22;4.07;;;;;;;;;;7302016;19;140705;-80
2023/06/19 12:51:24;;;;;;;5.50;4.00;;;;;;;;;;7301869;19;140775;-81
2023/06/19 12:53:51;;;;;;;4.22;3.60;;;;;;;;;;7301936;19;141965;-90
2023/06/19 12:56:18;;;;;;;6.45;3.90;;;;;;;;;;7302791;19;140835;-80
2023/06/19 12:58:45;;;;;;;4.93;3.80;;;;;;;;;;7302252;19;140393;-80
2023/06/19 13:01:13;;;;;;;4.43;3.70;;;;;;;;;;7302880;19;140894;-81
2023/06/19 13:03:40;;;;;;;4.20;3.78;;;;;;;;;;7301419;19;141698;-79
2023/06/19 13:06:08;;;;;;;4.32;3.88;;;;;;;;;;7301450;19;140775;-80
2023/06/19 13:08:35;;;;;;;4.05;3.65;;;;;;;;;;7301946;19;140526;-79
2023/06/19 13:11:02;;;;;;;4.47;3.65;;;;;;;;;;7301489;19;140690;-81
2023/06/19 13:13:30;;;;;;;3.60;3.30;;;;;;;;;;7301340;19;140506;-82
2023/06/19 13:15:57;;;;;;;4.45;3.67;;;;;;;;;;7301974;19;142531;-83
2023/06/19 13:18:24;;;;;;;4.75;3.65;;;;;;;;;;7301962;19;141102;-83
2023/06/19 13:20:51;;;;;;;3.70;3.35;;;;;;;;;;7301799;19;140647;-84
2023/06/19 13:23:18;;;;;;;4.43;3.40;;;;;;;;;;7300438;19;141243;-83
2023/06/19 13:25:46;;;;;;;3.47;3.17;;;;;;;;;;7301634;19;142539;-85
2023/06/19 13:28:13;;;;;;;3.60;3.30;;;;;;;;;;7300807;19;140413;-84
2023/06/19 13:30:40;;;;;;;4.13;3.40;;;;;;;;;;7301230;19;140676;-84
2023/06/19 13:33:08;;;;;;;4.07;3.30;;;;;;;;;;7300273;19;141570;-83
2023/06/19 13:35:35;;;;;;;4.15;3.20;;;;;;;;;;7300850;19;141325;-84
2023/06/19 13:38:03;;;;;;;3.42;3.13;;;;;;;;;;7301620;19;140402;-84
2023/06/19 13:40:30;;;;;;;3.20;2.90;;;;;;;;;;7309102;19;140839;-84
2023/06/19 13:42:58;;;;;;;3.75;3.45;;;;;;;;;;7307098;19;142280;-84
2023/06/19 13:45:26;;;;;;;3.80;3.05;;;;;;;;;;7306572;19;141884;-85
2023/06/19 13:47:53;;;;;;;3.38;2.83;;;;;;;;;;7307824;19;140627;-82
2023/06/19 13:50:21;;;;;;;3.47;3.17;;;;;;;;;;7306889;19;140603;-82
2023/06/19 13:52:48;;;;;;;3.53;3.20;;;;;;;;;;7307705;19;141387;-84
2023/06/19 13:55:15;;;;;;;3.92;3.08;;;;;;;;;;7307445;19;142501;-83
2023/06/19 13:57:43;;;;;;;3.70;3.10;;;;;;;;;;7307538;19;140971;-84
2023/06/19 14:00:11;;;;;;;3.72;3.30;;;;;;;;;;7305724;19;140790;-83
2023/06/19 14:02:40;;;;;;;3.25;2.95;;;;;;;;;;7306016;19;140605;-83
2023/06/19 14:05:14;;;;;;;3.25;2.95;;;;;;;;;;7308285;19;140962;-82
2023/06/19 14:07:44;;;;;;;3.17;2.88;;;;;;;;;;7309009;19;140581;-83
2023/06/19 14:10:12;;;;;;;3.58;3.28;;;;;;;;;;7306800;19;140572;-83
2023/06/19 14:12:39;;;;;;;3.97;2.95;;;;;;;;;;7307203;19;140545;-83
2023/06/19 14:15:07;;;;;;;4.75;3.38;;;;;;;;;;7306285;19;142065;-83
2023/06/19 14:17:36;;;;;;;2.83;2.53;;;;;;;;;;7306589;19;140535;-84
2023/06/19 14:20:05;;;;;;;3.58;3.00;;;;;;;;;;7306075;19;140593;-90
2023/06/19 14:22:32;;;;;;;3.38;3.08;;;;;;;;;;7309394;19;140935;-77
2023/06/19 14:25:01;;;;;;;4.43;3.30;;;;;;;;;;7306136;19;142191;-77
2023/06/19 14:27:29;;;;;;;4.53;3.17;;;;;;;;;;7306181;19;140711;-79
2023/06/19 14:29:56;;;;;;;3.30;3.00;;;;;;;;;;7305178;19;140769;-79
2023/06/19 14:32:24;;;;;;;3.80;3.08;;;;;;;;;;7306220;19;142505;-77
2023/06/19 14:34:52;;;;;;;3.45;3.10;;;;;;;;;;7306424;19;141150;-77
2023/06/19 14:37:20;;;;;;;3.65;3.03;;;;;;;;;;7305634;19;141897;-78
2023/06/19 14:39:47;;;;;;;3.25;2.95;;;;;;;;;;7305399;19;140541;-78